Time;durP1;ratioP1;P1;durP2;ratioP2;P2;SDS_P1;SDS_P2;PMS_P1;PMS_P2;Temp;Humidity;BMP_temperature;BMP_pressure;BME280_temperature;BME280_humidity;BME280_pressure;Samples;Min_cycle;Max_cycle;Signal;HPM_P1;HPM_P2
2022/11/14 00:00:30;;;;;;;16.57;8.63;;;;;;;4.23;98.13;100372.39;1698746;82;21016;-76
2022/11/14 00:03:15;;;;;;;16.67;7.70;;;;;;;4.17;97.85;100375.28;1689768;82;21016;-77
2022/11/14 00:06:05;;;;;;;14.85;6.97;;;;;;;4.14;97.56;100374.37;1706151;84;21060;-78
2022/11/14 00:08:50;;;;;;;16.37;7.80;;;;;;;4.11;97.21;100375.58;1705925;84;21032;-76
2022/11/14 00:11:34;;;;;;;16.70;8.03;;;;;;;4.03;97.11;100369.39;1724047;82;21986;-77
2022/11/14 00:14:20;;;;;;;16.80;7.65;;;;;;;3.96;97.16;100365.41;1716617;82;22128;-76
2022/11/14 00:17:05;;;;;;;16.25;7.08;;;;;;;3.91;96.98;100366.13;1693590;84;21033;-77
2022/11/14 00:19:50;;;;;;;16.77;8.65;;;;;;;3.86;96.91;100358.72;1708671;83;21110;-76
2022/11/14 00:22:35;;;;;;;16.45;7.85;;;;;;;3.78;97.17;100362.00;1713963;82;21859;-77
2022/11/14 00:25:21;;;;;;;13.55;6.15;;;;;;;3.75;97.50;100361.06;1732525;82;21590;-77
2022/11/14 00:28:05;;;;;;;12.23;5.85;;;;;;;3.73;97.10;100354.59;1692177;84;21087;-76
2022/11/14 00:30:50;;;;;;;13.43;5.28;;;;;;;3.67;97.06;100360.02;1739341;82;21004;-77
2022/11/14 00:33:35;;;;;;;13.68;5.55;;;;;;;3.63;96.71;100365.50;1685241;84;21103;-78
2022/11/14 00:36:20;;;;;;;12.05;5.72;;;;;;;3.59;97.57;100354.27;1706605;82;21007;-76
2022/11/14 00:39:05;;;;;;;13.62;6.05;;;;;;;3.60;97.20;100343.55;1675803;84;21048;-77
2022/11/14 00:41:50;;;;;;;13.85;6.00;;;;;;;3.54;97.30;100347.27;1729979;82;21022;-77
2022/11/14 00:44:35;;;;;;;12.15;5.33;;;;;;;3.54;97.63;100344.70;1682659;84;21056;-77
2022/11/14 00:47:20;;;;;;;15.88;6.53;;;;;;;3.56;98.04;100345.61;1714960;83;22586;-76
2022/11/14 00:50:07;;;;;;;12.80;6.00;;;;;;;3.57;98.14;100344.37;1709497;83;21463;-76
2022/11/14 00:52:51;;;;;;;13.98;6.15;;;;;;;3.62;97.87;100338.45;1715038;83;21154;-79
2022/11/14 00:55:36;;;;;;;10.85;5.50;;;;;;;3.64;98.14;100338.97;1701369;82;21126;-76
2022/11/14 00:58:21;;;;;;;12.15;5.53;;;;;;;3.64;97.84;100331.25;1692963;83;21030;-77
2022/11/14 01:01:06;;;;;;;11.25;5.83;;;;;;;3.66;97.70;100332.16;1714514;82;21002;-76
2022/11/14 01:03:51;;;;;;;11.78;5.55;;;;;;;3.66;97.79;100332.55;1735124;82;20986;-77
2022/11/14 01:06:36;;;;;;;11.22;5.75;;;;;;;3.59;97.32;100331.55;1719750;82;21033;-76
2022/11/14 01:09:21;;;;;;;14.00;5.80;;;;;;;3.57;97.56;100326.79;1727391;82;21018;-76
2022/11/14 01:12:06;;;;;;;12.23;5.85;;;;;;;3.56;97.41;100328.89;1735315;82;21003;-78
2022/11/14 01:14:52;;;;;;;13.55;6.15;;;;;;;3.52;97.63;100327.98;1725811;82;21005;-77
2022/11/14 01:17:37;;;;;;;13.38;5.65;;;;;;;3.49;97.31;100329.18;1713126;82;21582;-77
2022/11/14 01:20:22;;;;;;;9.75;4.78;;;;;;;3.48;97.12;100335.17;1718171;82;21049;-77
2022/11/14 01:23:09;;;;;;;12.05;4.97;;;;;;;3.43;97.41;100330.75;1708437;83;21076;-76
2022/11/14 01:25:54;;;;;;;9.95;5.12;;;;;;;3.43;97.30;100330.75;1718666;82;20982;-76
2022/11/14 01:28:39;;;;;;;9.48;5.00;;;;;;;3.36;97.24;100328.03;1727359;82;21039;-76
2022/11/14 01:31:25;;;;;;;11.97;5.65;;;;;;;3.34;96.99;100324.56;1715850;82;21047;-76
2022/11/14 01:34:10;;;;;;;11.33;6.30;;;;;;;3.34;97.74;100321.99;1735309;82;20967;-77
2022/11/14 01:36:55;;;;;;;16.00;7.58;;;;;;;3.37;98.11;100318.19;1722147;82;21034;-78
2022/11/14 01:39:40;;;;;;;15.20;6.10;;;;;;;3.42;98.38;100314.86;1721945;82;20967;-77
2022/11/14 01:42:25;;;;;;;12.10;5.45;;;;;;;3.45;98.27;100314.52;1702587;82;21584;-78
2022/11/14 01:45:58;;;;;;;11.25;5.65;;;;;;;3.48;98.02;100312.42;1715769;83;21022;-77
2022/11/14 01:48:51;;;;;;;11.57;5.40;;;;;;;3.52;98.19;100323.23;1725903;82;21003;-76
2022/11/14 01:51:48;;;;;;;27.15;12.60;;;;;;;3.55;97.62;100317.75;1725622;82;21927;-76
2022/11/14 01:54:37;;;;;;;23.30;12.70;;;;;;;3.59;97.74;100319.98;1713938;82;21572;-77
2022/11/14 01:57:30;;;;;;;15.45;7.10;;;;;;;3.63;98.10;100319.21;1707624;82;21010;-76
2022/11/14 02:00:15;;;;;;;16.42;7.03;;;;;;;3.70;98.23;100317.24;1710059;80;20984;-76
2022/11/14 02:03:00;;;;;;;14.23;6.65;;;;;;;3.78;98.15;100313.12;1721586;82;21042;-76
2022/11/14 02:05:47;;;;;;;17.00;7.65;;;;;;;3.81;97.97;100307.17;1726312;82;21551;-78
2022/11/14 02:08:33;;;;;;;17.52;7.17;;;;;;;3.81;97.57;100306.31;1741426;80;21088;-78
2022/11/14 02:11:18;;;;;;;18.10;8.10;;;;;;;3.77;97.37;100310.09;1692379;84;21007;-78
2022/11/14 02:14:04;;;;;;;16.70;7.72;;;;;;;3.75;97.29;100298.91;1690106;83;20969;-77
2022/11/14 02:16:49;;;;;;;17.75;7.58;;;;;;;3.71;97.34;100309.96;1750795;80;20916;-77
2022/11/14 02:19:46;;;;;;;21.02;7.92;;;;;;;3.66;97.19;100305.16;1722409;82;20966;-76
2022/11/14 02:22:32;;;;;;;23.18;9.00;;;;;;;3.67;97.67;100306.01;1779111;80;20961;-76
2022/11/14 02:25:18;;;;;;;18.65;8.03;;;;;;;3.70;97.57;100309.92;1761869;80;21032;-77
2022/11/14 02:28:04;;;;;;;16.75;8.00;;;;;;;3.73;97.48;100315.14;1738001;82;20962;-77
2022/11/14 02:30:50;;;;;;;19.07;9.10;;;;;;;3.58;96.86;100320.41;1750275;80;20988;-77
2022/11/14 02:33:34;;;;;;;16.60;8.15;;;;;;;3.47;96.48;100321.84;1719032;82;21483;-77
2022/11/14 02:36:19;;;;;;;21.23;8.43;;;;;;;3.34;96.22;100321.99;1756973;80;20972;-75
2022/11/14 02:39:03;;;;;;;15.98;7.47;;;;;;;3.19;96.90;100322.47;1731711;82;20974;-77
2022/11/14 02:41:50;;;;;;;15.80;7.20;;;;;;;3.13;96.79;100331.74;1767343;80;20968;-76
2022/11/14 02:44:34;;;;;;;16.70;7.37;;;;;;;3.06;96.85;100329.84;1764466;80;21035;-77
2022/11/14 02:47:20;;;;;;;15.80;6.60;;;;;;;2.95;96.99;100320.17;1763083;80;20984;-76
2022/11/14 02:50:05;;;;;;;14.50;6.90;;;;;;;2.91;97.39;100323.91;1727017;82;21593;-76
2022/11/14 02:52:52;;;;;;;16.62;7.45;;;;;;;2.88;97.11;100328.96;1755900;80;21043;-76
2022/11/14 02:55:37;;;;;;;12.88;6.60;;;;;;;2.81;97.42;100320.66;1722487;82;21038;-78
2022/11/14 02:58:22;;;;;;;15.30;6.22;;;;;;;2.79;97.48;100325.75;1726759;82;21044;-77
2022/11/14 03:01:07;;;;;;;14.18;6.70;;;;;;;2.78;97.45;100320.14;1729443;81;21083;-78
2022/11/14 03:03:52;;;;;;;16.60;6.95;;;;;;;2.72;97.07;100319.98;1754688;81;21379;-78
2022/11/14 03:06:37;;;;;;;14.95;7.15;;;;;;;2.67;97.18;100319.02;1713996;82;21038;-77
2022/11/14 03:09:22;;;;;;;16.50;6.92;;;;;;;2.64;97.21;100313.78;1706108;82;21031;-76
2022/11/14 03:12:08;;;;;;;16.60;7.33;;;;;;;2.68;97.87;100313.89;1704295;82;21039;-77
2022/11/14 03:14:53;;;;;;;14.45;6.53;;;;;;;2.72;98.15;100318.28;1726509;82;20983;-76
2022/11/14 03:17:38;;;;;;;15.15;6.50;;;;;;;2.72;98.16;100323.84;1689979;83;21525;-76
2022/11/14 03:20:23;;;;;;;13.95;6.53;;;;;;;2.74;98.34;100320.89;1736366;82;21043;-76
2022/11/14 03:23:08;;;;;;;12.93;5.67;;;;;;;2.71;98.22;100320.41;1751574;81;21032;-77
2022/11/14 03:25:53;;;;;;;16.32;6.40;;;;;;;2.65;97.79;100320.25;1751250;81;21000;-77
2022/11/14 03:28:39;;;;;;;12.88;7.22;;;;;;;2.63;98.60;100327.47;1750130;81;21035;-77
2022/11/14 03:31:24;;;;;;;13.85;5.80;;;;;;;2.60;98.24;100329.52;1726831;82;21040;-77
2022/11/14 03:34:10;;;;;;;11.03;5.55;;;;;;;2.57;98.05;100317.48;1760729;81;21512;-76
2022/11/14 03:36:55;;;;;;;12.70;5.75;;;;;;;2.59;98.09;100322.23;1728049;82;22172;-76
2022/11/14 03:39:40;;;;;;;14.90;7.42;;;;;;;2.59;98.10;100321.38;1743615;81;21955;-77
2022/11/14 03:42:25;;;;;;;12.95;6.72;;;;;;;2.52;97.65;100322.89;1726917;82;21048;-76
2022/11/14 03:45:11;;;;;;;12.58;6.42;;;;;;;2.55;97.52;100327.26;1694433;84;21072;-77
2022/11/14 03:47:56;;;;;;;13.15;6.45;;;;;;;2.47;97.89;100323.62;1718580;82;21000;-76
2022/11/14 03:50:42;;;;;;;16.10;7.12;;;;;;;2.43;97.83;100331.64;1698927;84;21048;-76
2022/11/14 03:53:27;;;;;;;12.33;5.85;;;;;;;2.39;97.86;100329.40;1728033;81;20976;-76
2022/11/14 03:56:12;;;;;;;14.43;5.65;;;;;;;2.39;97.18;100331.10;1765022;79;21884;-76
2022/11/14 03:58:57;;;;;;;13.45;5.03;;;;;;;2.30;96.58;100328.27;1736306;82;21056;-78
2022/11/14 04:01:42;;;;;;;11.63;5.47;;;;;;;2.26;96.98;100320.03;1766012;81;21008;-77
2022/11/14 04:04:26;;;;;;;22.32;8.40;;;;;;;2.24;97.47;100321.69;1714365;83;20931;-76
2022/11/14 04:07:11;;;;;;;12.45;6.10;;;;;;;2.24;98.13;100321.69;1771147;81;20960;-76
2022/11/14 04:09:56;;;;;;;12.85;5.90;;;;;;;2.19;97.56;100321.14;1707058;82;21083;-75
2022/11/14 04:12:40;;;;;;;11.28;4.80;;;;;;;2.17;97.89;100321.52;1754750;81;21012;-76
2022/11/14 04:15:25;;;;;;;17.40;7.08;;;;;;;2.15;98.01;100315.47;1707605;83;20996;-76
2022/11/14 04:18:09;;;;;;;20.52;9.60;;;;;;;2.19;97.88;100312.16;1732278;82;21081;-76
2022/11/14 04:20:54;;;;;;;13.38;5.80;;;;;;;2.21;98.12;100311.32;1742766;82;21661;-76
2022/11/14 04:23:39;;;;;;;17.98;8.30;;;;;;;2.23;97.86;100319.92;1742894;82;21735;-75
2022/11/14 04:26:24;;;;;;;18.62;8.53;;;;;;;2.24;98.25;100318.70;1742294;82;21019;-76
2022/11/14 04:29:09;;;;;;;9.05;4.50;;;;;;;2.26;98.37;100317.47;1741135;82;21091;-77
2022/11/14 04:31:54;;;;;;;11.35;5.33;;;;;;;2.28;97.72;100314.52;1740542;82;21566;-76
2022/11/14 04:34:39;;;;;;;13.83;5.03;;;;;;;2.25;97.95;100320.84;1735199;82;21036;-76
2022/11/14 04:37:24;;;;;;;14.90;5.85;;;;;;;2.27;97.98;100315.34;1703009;84;21067;-78
2022/11/14 04:40:10;;;;;;;16.25;7.92;;;;;;;2.27;97.86;100314.05;1702704;84;21060;-76
2022/11/14 04:42:54;;;;;;;14.70;7.35;;;;;;;2.20;97.95;100315.59;1702768;84;21023;-78
2022/11/14 04:45:40;;;;;;;21.87;9.33;;;;;;;2.21;97.65;100317.73;1702698;84;21535;-79
2022/11/14 04:48:24;;;;;;;14.98;6.58;;;;;;;2.16;97.53;100328.73;1702613;84;21096;-77
2022/11/14 04:51:09;;;;;;;12.13;6.08;;;;;;;2.12;97.66;100323.48;1702650;84;21039;-77
2022/11/14 04:53:54;;;;;;;15.15;7.67;;;;;;;2.06;97.44;100319.05;1702694;84;21060;-76
2022/11/14 04:56:40;;;;;;;26.52;13.03;;;;;;;2.05;97.39;100320.27;1702528;83;21630;-76
2022/11/14 04:59:25;;;;;;;14.95;7.33;;;;;;;2.02;97.42;100313.37;1702367;84;21135;-78
2022/11/14 05:02:10;;;;;;;11.40;6.17;;;;;;;2.00;97.56;100313.73;1702455;83;21036;-76
2022/11/14 05:04:55;;;;;;;11.57;5.55;;;;;;;2.01;97.89;100312.03;1702422;84;21115;-76
2022/11/14 05:07:40;;;;;;;11.80;5.85;;;;;;;2.04;98.04;100315.98;1702686;84;22249;-78
2022/11/14 05:10:25;;;;;;;11.95;5.50;;;;;;;2.04;97.85;100313.42;1702394;84;21055;-78
2022/11/14 05:13:11;;;;;;;11.57;5.10;;;;;;;2.10;97.66;100313.59;1702622;84;21051;-77
2022/11/14 05:16:00;;;;;;;8.55;4.30;;;;;;;2.07;97.81;100306.69;1702568;84;21079;-77
2022/11/14 05:18:45;;;;;;;11.22;5.08;;;;;;;2.06;97.45;100311.34;1710173;82;20992;-76
2022/11/14 05:21:30;;;;;;;10.05;4.95;;;;;;;2.08;97.84;100312.69;1731444;83;21068;-77
2022/11/14 05:24:15;;;;;;;14.10;5.70;;;;;;;2.10;97.79;100314.45;1731689;83;21059;-76
2022/11/14 05:27:00;;;;;;;13.48;5.65;;;;;;;2.14;97.68;100314.13;1731597;83;21630;-77
2022/11/14 05:29:45;;;;;;;10.35;5.22;;;;;;;2.13;97.64;100308.53;1731589;83;21043;-76
2022/11/14 05:32:30;;;;;;;17.77;6.45;;;;;;;2.12;97.84;100303.82;1731453;83;21311;-76
2022/11/14 05:35:15;;;;;;;12.43;4.47;;;;;;;2.15;97.65;100301.78;1731691;83;21135;-78
2022/11/14 05:38:01;;;;;;;12.68;5.50;;;;;;;2.13;97.18;100304.30;1731510;83;21612;-77
2022/11/14 05:40:46;;;;;;;18.12;8.40;;;;;;;2.05;96.94;100306.16;1715510;83;21055;-76
2022/11/14 05:43:31;;;;;;;13.62;6.58;;;;;;;1.96;97.11;100306.36;1731672;82;21103;-77
2022/11/14 05:46:16;;;;;;;12.03;5.58;;;;;;;1.95;97.39;100308.88;1731603;83;21579;-76
2022/11/14 05:49:01;;;;;;;14.00;7.15;;;;;;;1.92;96.89;100309.66;1731602;83;21035;-76
2022/11/14 05:51:46;;;;;;;12.05;5.25;;;;;;;1.84;96.48;100306.43;1731478;83;21016;-77
2022/11/14 05:54:31;;;;;;;16.50;4.95;;;;;;;1.76;97.08;100301.07;1704520;82;20976;-76
2022/11/14 05:57:17;;;;;;;11.08;4.95;;;;;;;1.73;96.74;100294.55;1725323;82;21079;-76
2022/11/14 06:00:04;;;;;;;10.95;5.10;;;;;;;1.71;96.68;100297.09;1721038;82;21043;-76
2022/11/14 06:02:54;;;;;;;10.18;5.05;;;;;;;1.71;96.94;100299.66;1725048;82;21016;-77
2022/11/14 06:05:40;;;;;;;9.13;4.53;;;;;;;1.70;97.67;100297.05;1736039;81;21055;-78
2022/11/14 06:08:28;;;;;;;9.33;4.42;;;;;;;1.73;97.22;100304.81;1737856;81;21043;-76
2022/11/14 06:11:17;;;;;;;13.00;5.00;;;;;;;1.78;97.43;100305.41;1725607;82;21028;-77
2022/11/14 06:14:03;;;;;;;11.45;4.67;;;;;;;1.84;97.49;100298.73;1735107;82;21626;-76
2022/11/14 06:16:48;;;;;;;11.75;5.28;;;;;;;1.91;97.42;100297.68;1732244;82;21048;-76
2022/11/14 06:19:34;;;;;;;10.80;5.60;;;;;;;1.82;97.07;100299.97;1740204;82;21067;-78
2022/11/14 06:22:19;;;;;;;14.63;5.72;;;;;;;1.81;97.29;100301.20;1717854;81;21012;-76
2022/11/14 06:25:04;;;;;;;15.85;6.22;;;;;;;1.85;97.08;100304.30;1717214;82;21020;-77
2022/11/14 06:27:49;;;;;;;10.95;4.87;;;;;;;1.90;97.37;100306.61;1722182;82;21518;-77
2022/11/14 06:30:34;;;;;;;13.65;6.83;;;;;;;1.95;97.03;100309.77;1720160;82;21035;-76
2022/11/14 06:33:19;;;;;;;14.45;6.35;;;;;;;1.88;97.09;100310.40;1734648;82;22163;-77
2022/11/14 06:36:07;;;;;;;17.40;6.40;;;;;;;1.91;97.34;100301.53;1728995;82;21498;-76
2022/11/14 06:38:52;;;;;;;13.08;5.50;;;;;;;1.95;97.44;100304.64;1740409;82;21095;-76
2022/11/14 06:41:37;;;;;;;11.22;5.45;;;;;;;1.97;97.24;100302.13;1728961;82;21131;-76
2022/11/14 06:44:22;;;;;;;19.15;8.65;;;;;;;2.01;97.32;100301.77;1722284;82;21127;-76
2022/11/14 06:47:08;;;;;;;29.42;11.38;;;;;;;1.98;96.46;100308.98;1728564;81;21020;-76
2022/11/14 06:49:53;;;;;;;34.67;11.45;;;;;;;1.94;96.64;100313.56;1727894;82;21086;-76
2022/11/14 06:52:38;;;;;;;20.30;9.03;;;;;;;1.93;96.25;100313.09;1737020;81;21044;-78
2022/11/14 06:55:22;;;;;;;16.70;7.50;;;;;;;1.91;96.40;100305.37;1726811;81;21633;-77
2022/11/14 06:58:07;;;;;;;23.57;10.38;;;;;;;1.85;96.24;100305.20;1729657;81;21052;-77
2022/11/14 07:00:52;;;;;;;32.38;15.38;;;;;;;1.84;96.62;100303.44;1724623;81;21087;-79
2022/11/14 07:03:38;;;;;;;29.35;11.75;;;;;;;1.90;96.69;100301.05;1689508;83;21023;-77
2022/11/14 07:06:26;;;;;;;24.82;9.63;;;;;;;1.93;96.85;100306.29;1677115;84;21036;-78
2022/11/14 07:09:11;;;;;;;19.90;8.23;;;;;;;1.96;96.81;100310.63;1693996;83;20988;-76
2022/11/14 07:11:56;;;;;;;12.60;6.05;;;;;;;1.88;97.10;100300.56;1730645;81;21007;-78
2022/11/14 07:14:42;;;;;;;18.98;5.83;;;;;;;1.99;97.22;100305.19;1730162;81;21020;-77
2022/11/14 07:17:27;;;;;;;12.43;5.03;;;;;;;2.04;97.57;100300.59;1732314;81;21000;-77
2022/11/14 07:20:12;;;;;;;13.72;5.30;;;;;;;2.10;97.04;100299.48;1727821;82;21066;-77
2022/11/14 07:22:57;;;;;;;14.70;6.85;;;;;;;2.10;97.53;100304.61;1727422;81;21535;-77
2022/11/14 07:25:42;;;;;;;10.50;5.22;;;;;;;2.15;97.62;100300.08;1664244;84;21036;-77
2022/11/14 07:28:27;;;;;;;13.72;5.92;;;;;;;2.23;97.38;100300.30;1674554;85;21072;-77
2022/11/14 07:31:15;;;;;;;23.02;7.15;;;;;;;2.25;97.25;100291.33;1683508;83;21600;-76
2022/11/14 07:34:00;;;;;;;15.28;6.95;;;;;;;2.27;97.17;100289.28;1730164;82;21484;-76
2022/11/14 07:36:45;;;;;;;16.17;6.80;;;;;;;2.30;97.13;100294.91;1734395;82;21018;-78
2022/11/14 07:39:30;;;;;;;41.63;14.68;;;;;;;2.25;96.80;100290.94;1729933;82;20980;-78
2022/11/14 07:42:15;;;;;;;15.93;7.72;;;;;;;2.25;96.66;100296.07;1728203;81;21088;-78
2022/11/14 07:45:00;;;;;;;15.55;6.90;;;;;;;2.25;96.34;100284.92;1722841;82;21036;-77
2022/11/14 07:47:45;;;;;;;15.83;5.85;;;;;;;2.28;96.03;100291.43;1735650;81;21076;-77
2022/11/14 07:50:30;;;;;;;22.67;7.62;;;;;;;2.27;96.63;100285.83;1722551;81;21056;-77
2022/11/14 07:53:16;;;;;;;12.40;5.60;;;;;;;2.32;96.55;100282.98;1732467;81;21544;-78
2022/11/14 07:56:05;;;;;;;21.97;8.33;;;;;;;2.41;96.54;100272.09;1710969;81;21007;-77
2022/11/14 07:58:50;;;;;;;18.77;5.55;;;;;;;2.42;96.12;100274.70;1692009;83;20989;-77
2022/11/14 08:01:34;;;;;;;13.05;5.05;;;;;;;2.50;96.34;100280.91;1693791;83;20996;-77
2022/11/14 08:04:19;;;;;;;9.25;4.50;;;;;;;2.51;96.00;100281.80;1693898;84;21651;-80
2022/11/14 08:07:04;;;;;;;9.18;4.35;;;;;;;2.53;95.98;100283.98;1690651;84;21029;-78
2022/11/14 08:09:49;;;;;;;8.18;4.03;;;;;;;2.49;95.75;100285.59;1693158;84;21030;-77
2022/11/14 08:12:37;;;;;;;12.40;5.97;;;;;;;2.49;95.99;100292.44;1695885;83;21373;-76
2022/11/14 08:15:22;;;;;;;15.40;7.17;;;;;;;2.48;96.13;100285.13;1694736;84;22036;-76
2022/11/14 08:18:07;;;;;;;13.45;6.85;;;;;;;2.55;95.67;100281.91;1695491;83;21033;-79
2022/11/14 08:20:53;;;;;;;13.15;6.05;;;;;;;2.53;95.58;100286.56;1695169;83;21560;-79
2022/11/14 08:23:38;;;;;;;13.48;5.65;;;;;;;2.57;95.43;100284.52;1694819;83;21084;-79
2022/11/14 08:26:23;;;;;;;13.95;5.97;;;;;;;2.63;95.57;100279.97;1693771;83;21015;-78
2022/11/14 08:29:08;;;;;;;16.73;7.12;;;;;;;2.65;95.66;100284.30;1692025;84;21926;-76
2022/11/14 08:31:53;;;;;;;11.88;6.28;;;;;;;2.66;94.98;100274.89;1696501;83;21235;-77
2022/11/14 08:34:38;;;;;;;8.40;4.60;;;;;;;2.68;95.01;100271.53;1691849;84;21005;-77
2022/11/14 08:37:23;;;;;;;13.83;4.67;;;;;;;2.64;94.54;100276.55;1695657;83;21049;-77
2022/11/14 08:40:10;;;;;;;9.75;4.25;;;;;;;2.64;95.02;100268.42;1694836;84;21084;-76
2022/11/14 08:43:00;;;;;;;10.65;4.70;;;;;;;2.65;94.90;100264.19;1693254;83;21029;-77
2022/11/14 08:45:45;;;;;;;17.05;6.60;;;;;;;2.71;94.91;100259.20;1696637;83;21358;-77
2022/11/14 08:48:30;;;;;;;12.25;5.05;;;;;;;2.78;95.48;100263.64;1697699;84;20949;-78
2022/11/14 08:51:15;;;;;;;27.73;10.15;;;;;;;2.91;95.68;100258.41;1697818;83;21065;-77
2022/11/14 08:54:00;;;;;;;16.85;8.05;;;;;;;2.95;94.95;100264.08;1695783;84;21061;-79
2022/11/14 08:56:46;;;;;;;13.38;6.35;;;;;;;2.98;95.16;100262.84;1659813;84;21041;-76
2022/11/14 08:59:31;;;;;;;17.50;7.17;;;;;;;2.97;95.03;100254.70;1636234;86;21041;-77
2022/11/14 09:02:17;;;;;;;14.28;6.15;;;;;;;3.07;95.04;100255.80;1640717;86;21000;-77
2022/11/14 09:05:02;;;;;;;11.73;5.33;;;;;;;3.13;95.04;100258.09;1646872;87;21012;-78
2022/11/14 09:07:47;;;;;;;8.20;4.22;;;;;;;3.20;95.08;100251.38;1644870;87;21585;-77
2022/11/14 09:10:32;;;;;;;9.95;4.55;;;;;;;3.35;95.33;100252.16;1638571;85;21908;-77
2022/11/14 09:13:18;;;;;;;6.87;3.92;;;;;;;3.41;95.14;100245.01;1642348;85;21085;-77
2022/11/14 09:16:04;;;;;;;11.10;5.75;;;;;;;3.44;94.82;100245.06;1629474;85;21635;-77
2022/11/14 09:18:49;;;;;;;9.60;5.08;;;;;;;3.46;94.97;100246.86;1602321;88;21120;-76
2022/11/14 09:21:34;;;;;;;8.60;3.85;;;;;;;3.57;95.32;100240.22;1587732;89;21076;-77
2022/11/14 09:24:19;;;;;;;9.70;3.70;;;;;;;3.57;94.45;100235.50;1635195;85;21983;-76
2022/11/14 09:27:04;;;;;;;8.13;3.55;;;;;;;3.53;94.56;100228.56;1637903;85;21020;-76
2022/11/14 09:29:49;;;;;;;8.48;3.75;;;;;;;3.57;93.98;100226.50;1643364;85;22506;-77
2022/11/14 09:32:34;;;;;;;11.70;5.50;;;;;;;3.51;93.88;100215.66;1595591;88;21734;-77
2022/11/14 09:35:19;;;;;;;8.53;4.45;;;;;;;3.53;93.90;100211.84;1639798;85;21101;-77
2022/11/14 09:38:08;;;;;;;8.23;3.67;;;;;;;3.48;93.55;100214.33;1648271;85;21020;-78
2022/11/14 09:41:25;;;;;;;11.33;4.15;;;;;;;3.46;93.56;100209.97;1642729;87;21062;-78
2022/11/14 09:44:24;;;;;;;13.93;6.90;;;;;;;3.49;93.68;100209.63;1634495;85;21084;-77
2022/11/14 09:47:14;;;;;;;9.08;4.10;;;;;;;3.61;94.10;100206.44;1602162;88;21180;-77
2022/11/14 09:50:25;;;;;;;9.28;4.37;;;;;;;3.72;93.96;100197.25;1645199;85;21056;-78
2022/11/14 09:53:24;;;;;;;9.43;4.03;;;;;;;3.79;94.10;100199.09;1635939;85;21093;-78
2022/11/14 09:56:16;;;;;;;10.65;4.03;;;;;;;3.86;93.32;100201.78;1658225;82;20974;-78
2022/11/14 09:59:01;;;;;;;6.33;3.50;;;;;;;3.86;93.03;100203.08;1695965;83;20980;-78
2022/11/14 10:02:06;;;;;;;12.68;5.00;;;;;;;3.91;92.55;100200.19;1692903;83;21022;-76
2022/11/14 10:05:27;;;;;;;10.53;4.87;;;;;;;3.94;92.58;100197.69;1661017;85;21201;-76
2022/11/14 10:08:42;;;;;;;8.85;4.65;;;;;;;3.89;92.31;100200.58;1660451;86;21021;-77
2022/11/14 10:12:03;;;;;;;8.95;4.60;;;;;;;3.93;92.73;100188.22;1663309;85;21078;-77
2022/11/14 10:15:27;;;;;;;11.65;4.62;;;;;;;3.90;92.42;100179.14;1661254;85;21077;-76
2022/11/14 10:18:32;;;;;;;7.80;4.17;;;;;;;3.88;92.50;100178.24;1662988;86;21108;-77
2022/11/14 10:21:41;;;;;;;7.30;4.12;;;;;;;3.92;92.55;100179.64;1662342;85;21094;-77
2022/11/14 10:24:55;;;;;;;9.35;4.25;;;;;;;3.93;92.12;100172.35;1662340;85;21010;-76
2022/11/14 10:28:11;;;;;;;9.73;4.67;;;;;;;3.95;92.15;100165.95;1612938;88;21069;-77
2022/11/14 10:31:32;;;;;;;9.03;4.75;;;;;;;3.92;91.87;100158.16;1547197;91;21111;-75
2022/11/14 10:34:40;;;;;;;7.67;3.65;;;;;;;3.88;91.65;100160.23;1662282;85;21021;-75
2022/11/14 10:37:51;;;;;;;8.63;4.12;;;;;;;3.90;91.76;100153.02;1658473;85;21692;-77
2022/11/14 10:40:46;;;;;;;7.80;3.92;;;;;;;3.99;91.57;100153.59;1611818;88;21064;-78
2022/11/14 10:43:48;;;;;;;11.05;4.47;;;;;;;3.94;91.14;100150.95;1632282;86;21100;-77
2022/11/14 10:46:38;;;;;;;9.50;4.80;;;;;;;4.03;92.31;100143.80;1659673;85;21054;-76
2022/11/14 10:49:25;;;;;;;8.60;4.45;;;;;;;4.08;92.31;100140.91;1663018;85;22181;-75
2022/11/14 10:52:17;;;;;;;13.70;5.62;;;;;;;3.99;91.43;100141.59;1665181;85;20969;-78
2022/11/14 10:55:15;;;;;;;12.78;6.37;;;;;;;3.94;91.10;100143.23;1660894;85;21082;-78
2022/11/14 10:58:01;;;;;;;13.83;6.95;;;;;;;3.95;91.55;100135.08;1662415;85;20987;-77
2022/11/14 11:00:46;;;;;;;15.53;7.00;;;;;;;3.98;91.51;100136.44;1642209;85;21081;-78
2022/11/14 11:03:43;;;;;;;11.57;5.78;;;;;;;3.95;91.45;100128.22;1685114;83;21034;-76
2022/11/14 11:06:28;;;;;;;11.43;5.33;;;;;;;3.87;90.87;100138.80;1668295;86;21645;-76
2022/11/14 11:12:37;;;;;;;12.85;5.70;;;;;;;3.72;92.08;100129.09;1655913;85;21038;-76
2022/11/14 11:15:31;;;;;;;14.73;6.85;;;;;;;3.65;92.69;100121.23;1643224;86;20977;-77
2022/11/14 11:18:29;;;;;;;10.95;5.97;;;;;;;3.75;92.61;100115.42;1624864;86;21028;-76
2022/11/14 11:21:18;;;;;;;14.70;6.33;;;;;;;3.75;92.62;100111.56;1699342;83;21049;-77
2022/11/14 11:24:03;;;;;;;12.65;6.37;;;;;;;3.83;93.15;100103.56;1670232;86;21302;-77
2022/11/14 11:26:47;;;;;;;11.80;5.70;;;;;;;3.92;93.08;100105.42;1654161;85;21049;-77
2022/11/14 11:29:32;;;;;;;22.62;7.72;;;;;;;4.02;93.16;100106.45;1668094;84;21048;-76
2022/11/14 11:32:25;;;;;;;26.52;10.65;;;;;;;4.12;92.91;100105.37;1634619;87;21180;-79
2022/11/14 11:35:15;;;;;;;22.50;8.35;;;;;;;4.21;92.80;100105.08;1632661;86;21416;-77
2022/11/14 11:38:02;;;;;;;19.52;9.03;;;;;;;4.28;92.70;100097.92;1636474;86;21008;-77
2022/11/14 11:40:51;;;;;;;16.77;7.55;;;;;;;4.37;92.89;100096.77;1641294;86;21019;-79
2022/11/14 11:43:47;;;;;;;22.42;9.38;;;;;;;4.31;92.09;100097.52;1637969;86;21093;-80
2022/11/14 11:46:49;;;;;;;23.05;10.98;;;;;;;4.30;92.55;100091.09;1696136;84;21360;-77
2022/11/14 11:49:48;;;;;;;14.55;7.87;;;;;;;4.33;91.71;100082.11;1698706;83;21025;-77
2022/11/14 11:52:51;;;;;;;17.00;8.45;;;;;;;4.21;92.38;100081.48;1698545;83;21040;-77
2022/11/14 11:55:40;;;;;;;17.55;7.40;;;;;;;4.19;92.08;100083.17;1695426;84;21759;-78
2022/11/14 11:58:48;;;;;;;19.80;7.62;;;;;;;4.22;92.17;100082.34;1696924;83;21345;-77
2022/11/14 12:01:33;;;;;;;13.98;6.40;;;;;;;4.26;92.17;100081.55;1695631;83;21023;-78
2022/11/14 12:04:19;;;;;;;14.25;7.40;;;;;;;4.17;92.23;100071.55;1669646;86;21641;-78
2022/11/14 12:07:14;;;;;;;14.40;7.33;;;;;;;4.27;92.22;100066.56;1694405;83;21540;-77
2022/11/14 12:10:16;;;;;;;15.85;7.80;;;;;;;4.24;92.09;100066.11;1694887;83;21071;-77
2022/11/14 12:13:43;;;;;;;12.58;6.12;;;;;;;4.29;92.79;100064.88;1641410;86;21626;-77
2022/11/14 12:16:56;;;;;;;15.08;6.72;;;;;;;4.35;92.76;100063.69;1637027;86;21066;-78
2022/11/14 12:20:17;;;;;;;13.83;6.58;;;;;;;4.43;92.83;100062.52;1639221;86;21069;-77
2022/11/14 12:23:44;;;;;;;16.75;7.00;;;;;;;4.48;92.65;100068.63;1694169;84;21063;-78
2022/11/14 12:27:00;;;;;;;15.15;7.37;;;;;;;4.53;92.78;100061.81;1617178;87;21071;-78
2022/11/14 12:29:50;;;;;;;83.42;21.40;;;;;;;4.54;92.46;100051.55;1698201;84;21019;-77
2022/11/14 12:33:05;;;;;;;33.33;12.18;;;;;;;4.61;92.74;100049.05;1693265;83;21320;-76
2022/11/14 12:35:55;;;;;;;23.80;11.40;;;;;;;4.62;92.70;100046.51;1696555;84;21010;-77
2022/11/14 12:38:50;;;;;;;23.90;12.33;;;;;;;4.66;92.74;100050.00;1694550;84;21035;-78
2022/11/14 12:41:38;;;;;;;20.40;9.48;;;;;;;4.67;92.36;100053.86;1698840;83;21030;-75
2022/11/14 12:44:31;;;;;;;20.00;10.08;;;;;;;4.60;92.04;100046.05;1639296;86;21050;-78
2022/11/14 12:47:22;;;;;;;34.92;16.17;;;;;;;4.53;92.04;100044.64;1640802;86;20994;-78
2022/11/14 12:50:35;;;;;;;21.00;9.88;;;;;;;4.48;91.65;100046.73;1643024;86;21039;-77
2022/11/14 12:53:37;;;;;;;39.05;13.78;;;;;;;4.38;91.63;100047.02;1666719;86;21014;-78
2022/11/14 12:56:36;;;;;;;22.70;10.13;;;;;;;4.39;92.27;100042.30;1693928;83;21658;-77
2022/11/14 12:59:38;;;;;;;20.92;9.50;;;;;;;4.32;92.57;100038.77;1695016;84;21915;-77
2022/11/14 13:02:51;;;;;;;26.90;9.38;;;;;;;4.29;92.13;100033.99;1696022;84;21027;-77
2022/11/14 13:05:59;;;;;;;22.52;10.05;;;;;;;4.24;91.67;100034.33;1697123;83;21076;-76
2022/11/14 13:09:08;;;;;;;19.05;8.65;;;;;;;4.14;92.92;100036.78;1658050;85;21060;-76
2022/11/14 13:21:45;;;;;;;18.82;8.53;;;;;;;4.23;93.56;100029.61;1666555;86;21038;-77